Time;durP1;ratioP1;P1;durP2;ratioP2;P2;SDS_P1;SDS_P2;PMS_P1;PMS_P2;Temp;Humidity;BMP_temperature;BMP_pressure;BME280_temperature;BME280_humidity;BME280_pressure;Samples;Min_cycle;Max_cycle;Signal;HPM_P1;HPM_P2
2022/10/13 00:01:24;;;;;;;28.52;12.57;;;9.20;99.90;;;;;;5134537;27;20051;-74
2022/10/13 00:03:51;;;;;;;30.52;12.85;;;9.20;99.90;;;;;;5134102;27;20122;-75
2022/10/13 00:06:19;;;;;;;30.27;12.35;;;9.20;99.90;;;;;;5134003;27;20051;-72
2022/10/13 00:08:45;;;;;;;33.45;13.32;;;9.30;99.90;;;;;;5136130;27;20130;-72
2022/10/13 00:11:22;;;;;;;29.27;12.93;;;9.30;99.90;;;;;;5118664;27;20083;-74
2022/10/13 00:13:50;;;;;;;36.70;12.90;;;9.30;99.90;;;;;;5137315;27;20043;-73
2022/10/13 00:16:19;;;;;;;33.47;13.73;;;9.30;99.90;;;;;;5134220;27;20440;-76
2022/10/13 00:18:44;;;;;;;30.67;12.60;;;9.30;99.90;;;;;;5134678;27;20039;-74
2022/10/13 00:21:14;;;;;;;31.60;13.00;;;9.30;99.90;;;;;;5116115;27;20046;-74
2022/10/13 00:23:40;;;;;;;34.53;12.32;;;9.30;99.90;;;;;;5133251;27;20471;-74
2022/10/13 00:26:09;;;;;;;33.75;13.13;;;9.30;99.90;;;;;;5133945;27;20135;-74
2022/10/13 00:28:35;;;;;;;36.28;12.95;;;9.30;99.90;;;;;;5133847;27;20115;-74
2022/10/13 00:31:01;;;;;;;30.58;12.82;;;9.40;99.90;;;;;;5134309;27;20388;-75
2022/10/13 00:33:27;;;;;;;33.10;13.02;;;9.40;99.90;;;;;;5134096;27;20079;-75
2022/10/13 00:35:53;;;;;;;34.33;13.13;;;9.40;99.90;;;;;;5134410;27;20126;-76
2022/10/13 00:38:21;;;;;;;31.88;13.43;;;9.40;99.90;;;;;;5132424;27;20050;-72
2022/10/13 00:40:47;;;;;;;39.55;12.52;;;9.40;99.90;;;;;;5115343;28;20047;-75
2022/10/13 00:43:24;;;;;;;36.42;14.27;;;9.30;99.90;;;;;;5133707;27;20077;-77
2022/10/13 00:45:51;;;;;;;28.52;13.77;;;9.40;99.90;;;;;;5133686;27;20086;-73
2022/10/13 00:48:25;;;;;;;28.70;12.80;;;9.40;99.90;;;;;;5134596;27;20127;-75
2022/10/13 00:50:52;;;;;;;32.35;13.27;;;9.40;99.90;;;;;;5131960;28;20575;-75
2022/10/13 00:53:22;;;;;;;31.00;13.57;;;9.40;99.90;;;;;;5134403;27;20051;-75
2022/10/13 00:55:50;;;;;;;30.05;12.88;;;9.40;99.90;;;;;;5137136;27;20053;-76
2022/10/13 00:58:18;;;;;;;31.80;13.50;;;9.40;99.90;;;;;;5138190;27;20066;-75
2022/10/13 01:00:49;;;;;;;40.88;13.93;;;9.30;99.90;;;;;;5137782;27;20047;-73
2022/10/13 01:03:19;;;;;;;37.15;13.48;;;9.30;99.90;;;;;;5137784;27;20130;-75
2022/10/13 01:05:46;;;;;;;29.33;12.30;;;9.30;99.90;;;;;;5138163;27;20090;-75
2022/10/13 01:08:13;;;;;;;29.17;13.07;;;9.30;99.90;;;;;;5119608;27;20102;-75
2022/10/13 01:11:16;;;;;;;32.20;12.23;;;9.30;99.90;;;;;;5137445;27;20051;-74
2022/10/13 01:14:06;;;;;;;26.20;11.38;;;9.30;99.90;;;;;;5137777;27;20047;-75
2022/10/13 01:16:54;;;;;;;30.67;12.93;;;9.40;99.90;;;;;;5157406;27;20058;-75
2022/10/13 01:19:47;;;;;;;34.65;12.93;;;9.50;99.90;;;;;;5124519;27;20043;-75
2022/10/13 01:22:35;;;;;;;31.95;12.52;;;9.40;99.90;;;;;;5158736;27;20200;-75
2022/10/13 01:25:09;;;;;;;37.70;13.82;;;9.40;99.90;;;;;;5139776;27;20050;-75
2022/10/13 01:27:58;;;;;;;30.85;13.32;;;9.30;99.90;;;;;;5158143;27;20039;-75
2022/10/13 01:30:23;;;;;;;33.22;13.88;;;9.30;99.90;;;;;;5139714;27;20125;-75
2022/10/13 01:33:00;;;;;;;38.80;13.23;;;9.30;99.90;;;;;;5139837;27;20039;-75
2022/10/13 01:35:41;;;;;;;38.05;13.52;;;9.20;99.90;;;;;;5139430;27;20461;-75
2022/10/13 01:38:31;;;;;;;30.58;13.10;;;9.30;99.90;;;;;;5157937;27;20042;-75
2022/10/13 01:40:57;;;;;;;32.17;13.57;;;9.30;99.90;;;;;;5139597;27;20130;-75
2022/10/13 01:43:28;;;;;;;31.85;13.43;;;9.30;99.90;;;;;;5157862;27;20078;-75
2022/10/13 01:46:08;;;;;;;31.52;12.93;;;9.30;99.90;;;;;;5157945;27;20090;-75
2022/10/13 01:48:38;;;;;;;33.58;13.68;;;9.30;99.90;;;;;;5140348;27;20046;-75
2022/10/13 01:51:08;;;;;;;33.17;12.82;;;9.30;99.90;;;;;;5157879;27;20050;-74
2022/10/13 01:53:35;;;;;;;31.67;12.80;;;9.40;99.90;;;;;;5139023;27;20125;-74
2022/10/13 01:56:00;;;;;;;34.83;13.57;;;9.30;99.90;;;;;;5138904;27;20059;-75
2022/10/13 01:58:29;;;;;;;33.42;13.73;;;9.40;99.90;;;;;;5157727;27;20042;-75
2022/10/13 02:01:25;;;;;;;31.73;14.10;;;9.40;99.90;;;;;;5157451;27;20081;-74
2022/10/13 02:04:07;;;;;;;35.70;13.38;;;9.40;99.90;;;;;;5138818;27;20045;-75
2022/10/13 02:07:00;;;;;;;36.03;13.25;;;9.30;99.90;;;;;;5138979;27;20047;-74
2022/10/13 02:09:44;;;;;;;35.15;14.02;;;9.40;99.90;;;;;;5157363;27;20134;-74
2022/10/13 02:12:33;;;;;;;42.53;13.38;;;9.30;99.90;;;;;;5138868;27;20084;-73
2022/10/13 02:14:59;;;;;;;43.15;14.10;;;9.30;99.90;;;;;;5121123;27;20137;-74
2022/10/13 02:17:27;;;;;;;33.80;14.55;;;9.30;99.90;;;;;;5138684;27;20119;-73
2022/10/13 02:19:54;;;;;;;35.65;15.63;;;9.20;99.90;;;;;;5138707;27;20045;-74
2022/10/13 02:22:23;;;;;;;32.65;14.38;;;9.20;99.90;;;;;;5138476;27;20142;-73
2022/10/13 02:24:48;;;;;;;33.35;14.25;;;9.20;99.90;;;;;;5138223;27;20114;-73
2022/10/13 02:27:15;;;;;;;38.05;14.05;;;9.20;99.90;;;;;;5104769;27;20046;-73
2022/10/13 02:29:53;;;;;;;36.40;14.70;;;9.20;99.90;;;;;;5138566;27;20382;-74
2022/10/13 02:32:20;;;;;;;35.47;14.50;;;9.20;99.90;;;;;;5156895;27;20047;-75
2022/10/13 02:34:46;;;;;;;34.08;14.68;;;9.30;99.90;;;;;;5157108;27;20069;-74
2022/10/13 02:37:11;;;;;;;31.98;14.35;;;9.30;99.90;;;;;;5156888;27;20142;-74
2022/10/13 02:39:37;;;;;;;34.45;14.18;;;9.40;99.90;;;;;;5138253;27;20139;-78
2022/10/13 02:42:03;;;;;;;36.47;14.07;;;9.40;99.90;;;;;;5156520;27;20038;-74
2022/10/13 02:44:29;;;;;;;34.13;14.65;;;9.40;99.90;;;;;;5138181;27;20039;-74
2022/10/13 02:46:55;;;;;;;32.85;14.70;;;9.50;99.90;;;;;;5138063;27;20046;-74
2022/10/13 02:49:20;;;;;;;33.78;14.02;;;9.50;99.90;;;;;;5138250;27;20050;-75
2022/10/13 02:51:46;;;;;;;34.30;14.25;;;9.60;99.90;;;;;;5137909;27;20046;-74
2022/10/13 02:54:12;;;;;;;40.83;15.13;;;9.60;99.90;;;;;;5156299;27;20043;-74
2022/10/13 02:56:37;;;;;;;34.38;13.65;;;9.60;99.90;;;;;;5120718;27;20082;-74
2022/10/13 02:59:03;;;;;;;35.72;14.85;;;9.70;99.90;;;;;;5156981;27;20445;-74
2022/10/13 03:01:29;;;;;;;35.53;14.07;;;9.70;99.90;;;;;;5138010;27;20176;-74
2022/10/13 03:03:55;;;;;;;30.48;13.45;;;9.70;99.90;;;;;;5137915;27;20118;-74
2022/10/13 03:06:21;;;;;;;38.03;13.70;;;9.80;99.90;;;;;;5138426;27;20046;-74
2022/10/13 03:08:47;;;;;;;33.90;13.25;;;9.80;99.90;;;;;;5137753;27;20055;-73
2022/10/13 03:11:12;;;;;;;28.85;12.88;;;9.90;99.90;;;;;;5155937;27;20045;-75
2022/10/13 03:13:38;;;;;;;40.55;14.93;;;9.90;99.90;;;;;;5120002;27;20390;-74
2022/10/13 03:16:05;;;;;;;37.70;14.32;;;9.90;99.90;;;;;;5136517;27;20058;-74
2022/10/13 03:18:30;;;;;;;32.17;13.48;;;9.90;99.90;;;;;;5120655;27;20443;-74
2022/10/13 03:21:02;;;;;;;33.63;14.63;;;10.00;99.90;;;;;;5155391;27;20050;-75
2022/10/13 03:23:28;;;;;;;31.98;13.48;;;10.00;99.90;;;;;;5156603;27;20047;-74
2022/10/13 03:25:54;;;;;;;34.00;13.65;;;10.00;99.90;;;;;;5155527;27;20451;-74
2022/10/13 03:28:20;;;;;;;35.60;13.95;;;10.00;99.90;;;;;;5137162;27;20114;-75
2022/10/13 03:30:46;;;;;;;41.63;14.70;;;10.00;99.90;;;;;;5155764;27;20476;-75
2022/10/13 03:33:12;;;;;;;34.78;14.20;;;10.00;99.90;;;;;;5156261;27;20042;-75
2022/10/13 03:35:38;;;;;;;35.65;13.98;;;10.00;99.90;;;;;;5155492;27;20387;-79
2022/10/13 03:38:04;;;;;;;34.35;14.43;;;10.00;99.90;;;;;;5136744;27;20043;-76
2022/10/13 03:40:29;;;;;;;38.30;15.10;;;10.00;99.90;;;;;;5155408;27;20043;-76
2022/10/13 03:42:55;;;;;;;36.13;14.35;;;10.00;99.90;;;;;;5137344;27;20483;-76
2022/10/13 03:45:21;;;;;;;35.63;14.38;;;10.00;99.90;;;;;;5137337;27;20042;-78
2022/10/13 03:47:46;;;;;;;37.00;15.43;;;10.00;99.90;;;;;;5136606;27;20390;-79
2022/10/13 03:50:12;;;;;;;34.03;14.82;;;10.00;99.90;;;;;;5155444;27;20209;-79
2022/10/13 03:52:38;;;;;;;38.00;15.20;;;10.00;99.90;;;;;;5155103;27;20058;-79
2022/10/13 03:55:04;;;;;;;37.17;15.82;;;9.90;99.90;;;;;;5136435;27;20043;-79
2022/10/13 03:57:31;;;;;;;41.28;17.10;;;9.90;99.90;;;;;;5137185;27;20078;-78
2022/10/13 03:59:57;;;;;;;35.53;15.25;;;9.90;99.90;;;;;;5154970;27;20042;-77
2022/10/13 04:02:23;;;;;;;37.75;15.30;;;9.90;99.90;;;;;;5136950;27;20038;-78
2022/10/13 04:04:49;;;;;;;37.45;15.93;;;9.90;99.90;;;;;;5137471;27;20054;-78
2022/10/13 04:07:15;;;;;;;40.92;14.70;;;10.00;99.90;;;;;;5136732;27;20050;-77
2022/10/13 04:09:41;;;;;;;38.30;15.13;;;10.00;99.90;;;;;;5154726;27;20058;-82
2022/10/13 04:12:07;;;;;;;32.90;15.65;;;10.00;99.90;;;;;;5136795;27;20146;-77
2022/10/13 04:14:32;;;;;;;32.67;14.38;;;10.00;99.90;;;;;;5154730;27;20549;-79
2022/10/13 04:16:58;;;;;;;37.92;14.95;;;10.00;99.90;;;;;;5136321;27;20046;-75
2022/10/13 04:19:24;;;;;;;35.22;14.85;;;10.00;99.90;;;;;;5154511;27;20509;-76
2022/10/13 04:21:50;;;;;;;45.35;17.27;;;10.00;99.90;;;;;;5155185;27;20046;-76
2022/10/13 04:24:16;;;;;;;41.67;15.90;;;9.90;99.90;;;;;;5135957;27;20073;-77
2022/10/13 04:26:43;;;;;;;37.83;16.27;;;9.90;99.90;;;;;;5102962;27;20090;-82
2022/10/13 04:29:10;;;;;;;41.63;15.65;;;9.90;99.90;;;;;;5135447;27;20043;-77
2022/10/13 04:31:37;;;;;;;42.88;16.77;;;9.90;99.90;;;;;;5136373;27;20054;-76
2022/10/13 04:34:03;;;;;;;36.22;15.75;;;9.90;99.90;;;;;;5136304;27;20433;-76
2022/10/13 04:36:29;;;;;;;41.42;16.73;;;9.90;99.90;;;;;;5119440;27;20049;-75
2022/10/13 04:38:55;;;;;;;36.88;16.20;;;9.90;99.90;;;;;;5136207;27;20115;-77
2022/10/13 04:41:21;;;;;;;36.08;15.65;;;9.90;99.90;;;;;;5135811;27;20042;-77
2022/10/13 04:43:48;;;;;;;35.13;15.82;;;9.90;99.90;;;;;;5118754;27;20089;-77
2022/10/13 04:46:19;;;;;;;;;;;9.90;99.90;;;;;;5155002;27;20034;-77
2022/10/13 04:48:45;;;;;;;42.95;15.70;;;9.90;99.90;;;;;;5135705;27;19919;-77
2022/10/13 04:51:13;;;;;;;40.83;15.88;;;10.00;99.90;;;;;;5118899;27;20114;-77
2022/10/13 04:53:39;;;;;;;40.67;15.75;;;9.90;99.90;;;;;;5135813;27;20046;-79
2022/10/13 04:56:08;;;;;;;35.78;15.20;;;9.90;99.90;;;;;;5135890;27;20101;-78
2022/10/13 04:58:35;;;;;;;35.22;15.38;;;9.90;99.90;;;;;;5119309;27;20039;-77
2022/10/13 05:01:02;;;;;;;42.15;17.02;;;10.00;99.90;;;;;;5154763;27;20175;-79
2022/10/13 05:03:28;;;;;;;;;;;9.90;99.90;;;;;;5119631;27;20054;-80
2022/10/13 05:05:54;;;;;;;36.10;15.00;;;10.00;99.90;;;;;;5135885;27;20027;-78
2022/10/13 05:08:20;;;;;;;37.00;15.30;;;10.00;99.90;;;;;;5101982;27;20435;-77
2022/10/13 05:10:57;;;;;;;33.90;15.20;;;10.00;99.90;;;;;;5136076;27;20058;-77
2022/10/13 05:13:29;;;;;;;34.40;15.57;;;10.00;99.90;;;;;;5137221;27;20419;-78
2022/10/13 05:15:55;;;;;;;34.72;15.52;;;10.00;99.90;;;;;;5132257;27;20058;-80
2022/10/13 05:18:21;;;;;;;38.28;15.80;;;10.10;99.90;;;;;;5081833;28;20055;-79
2022/10/13 05:20:47;;;;;;;36.65;15.90;;;10.10;99.90;;;;;;5132640;28;20046;-78
2022/10/13 05:23:14;;;;;;;34.97;16.17;;;10.10;99.90;;;;;;5133386;27;20122;-78
2022/10/13 05:25:40;;;;;;;38.10;16.40;;;10.10;99.90;;;;;;5115493;28;20088;-80
2022/10/13 05:28:06;;;;;;;38.55;15.38;;;10.10;99.90;;;;;;5132096;28;20082;-81
2022/10/13 05:30:33;;;;;;;40.22;15.90;;;10.10;99.90;;;;;;5133346;27;20047;-79
2022/10/13 05:32:59;;;;;;;42.90;16.20;;;10.10;99.90;;;;;;5132109;28;20459;-79
2022/10/13 05:35:25;;;;;;;40.00;15.45;;;10.10;99.90;;;;;;5135101;27;20297;-79
2022/10/13 05:37:51;;;;;;;38.70;16.50;;;10.10;99.90;;;;;;5133720;28;20047;-83
2022/10/13 05:40:17;;;;;;;37.22;15.48;;;10.10;99.90;;;;;;5135616;27;20058;-80
2022/10/13 05:42:43;;;;;;;36.40;15.35;;;10.20;99.90;;;;;;5136637;27;20050;-78
2022/10/13 05:45:10;;;;;;;35.92;15.70;;;10.30;99.90;;;;;;5138034;27;20078;-78
2022/10/13 05:47:35;;;;;;;37.60;16.30;;;10.30;99.90;;;;;;5139649;27;20119;-80
2022/10/13 05:50:01;;;;;;;35.88;15.70;;;10.30;99.90;;;;;;5143263;27;20523;-78
2022/10/13 05:52:30;;;;;;;39.60;15.90;;;10.30;99.90;;;;;;5143630;27;20039;-78
2022/10/13 05:55:00;;;;;;;43.33;17.83;;;10.30;99.90;;;;;;5141296;27;20420;-75
2022/10/13 05:57:39;;;;;;;39.90;16.77;;;10.30;99.90;;;;;;5143506;27;20044;-77
2022/10/13 06:00:12;;;;;;;37.88;15.90;;;10.30;99.90;;;;;;5125070;27;20051;-80
2022/10/13 06:03:08;;;;;;;39.08;16.33;;;10.30;99.90;;;;;;5140669;27;20043;-78
2022/10/13 06:05:34;;;;;;;38.63;16.27;;;10.30;99.90;;;;;;5140147;27;20070;-80
2022/10/13 06:08:00;;;;;;;40.38;18.17;;;10.30;99.90;;;;;;5136592;27;20104;-80
2022/10/13 06:10:27;;;;;;;36.72;15.65;;;10.30;99.90;;;;;;5118568;27;20051;-79
2022/10/13 06:12:52;;;;;;;36.95;16.30;;;10.30;99.90;;;;;;5137224;27;20126;-79
2022/10/13 06:15:18;;;;;;;46.10;17.65;;;10.30;99.90;;;;;;5117740;27;20163;-79
2022/10/13 06:17:44;;;;;;;46.33;17.02;;;10.40;99.90;;;;;;5136931;27;20047;-79
2022/10/13 06:20:10;;;;;;;38.13;15.77;;;10.40;99.90;;;;;;5135332;27;20043;-80
2022/10/13 06:22:37;;;;;;;39.63;16.38;;;10.40;99.90;;;;;;5135043;27;20050;-81
2022/10/13 06:25:04;;;;;;;36.63;16.60;;;10.40;99.90;;;;;;5135897;27;20560;-79
2022/10/13 06:27:31;;;;;;;39.10;15.85;;;10.40;99.90;;;;;;5136357;27;20058;-80
2022/10/13 06:29:57;;;;;;;37.42;16.08;;;10.50;99.90;;;;;;5118776;27;20168;-82
2022/10/13 06:32:23;;;;;;;46.87;17.67;;;10.50;99.90;;;;;;5137008;27;20371;-81
2022/10/13 06:34:49;;;;;;;35.90;16.92;;;10.50;99.90;;;;;;5135600;27;20072;-79
2022/10/13 06:37:15;;;;;;;40.20;17.07;;;10.50;99.90;;;;;;5134753;27;20051;-79
2022/10/13 06:39:41;;;;;;;38.25;16.98;;;10.50;99.90;;;;;;5136502;27;20104;-81
2022/10/13 06:42:07;;;;;;;39.38;17.42;;;10.50;99.90;;;;;;5101501;27;20055;-80
2022/10/13 06:44:33;;;;;;;43.30;16.85;;;10.50;99.90;;;;;;5137145;27;20108;-83
2022/10/13 06:46:59;;;;;;;43.45;17.60;;;10.50;99.90;;;;;;5135576;27;20363;-79
2022/10/13 06:49:26;;;;;;;41.05;17.48;;;10.50;99.90;;;;;;5137097;27;20317;-75
2022/10/13 06:51:52;;;;;;;43.45;17.63;;;10.60;99.90;;;;;;5135372;27;20047;-76
2022/10/13 06:54:18;;;;;;;43.78;16.38;;;10.60;99.90;;;;;;5134809;27;20097;-77
2022/10/13 06:56:44;;;;;;;39.97;16.38;;;10.70;99.90;;;;;;5118052;27;20047;-78
2022/10/13 06:59:09;;;;;;;44.45;16.38;;;10.70;99.90;;;;;;5134696;27;20043;-82
2022/10/13 07:01:35;;;;;;;39.95;17.08;;;10.80;99.90;;;;;;5118595;27;20051;-77
2022/10/13 07:04:01;;;;;;;39.78;17.77;;;10.80;99.90;;;;;;5134865;27;20062;-77
2022/10/13 07:06:28;;;;;;;42.38;17.25;;;10.80;99.90;;;;;;5118576;27;20478;-80
2022/10/13 07:08:53;;;;;;;42.28;16.65;;;10.80;99.90;;;;;;5135950;27;20039;-79
2022/10/13 07:11:19;;;;;;;36.47;16.73;;;10.80;99.90;;;;;;5102111;27;20061;-79
2022/10/13 07:13:45;;;;;;;44.50;17.90;;;10.80;99.90;;;;;;5135259;27;20407;-80
2022/10/13 07:16:11;;;;;;;41.08;17.80;;;10.90;99.90;;;;;;5134271;27;20051;-78
2022/10/13 07:18:37;;;;;;;45.13;17.58;;;10.90;99.90;;;;;;5135641;27;20058;-79
2022/10/13 07:21:05;;;;;;;43.95;17.38;;;10.90;99.90;;;;;;5119274;27;20079;-80
2022/10/13 07:23:31;;;;;;;37.78;17.30;;;11.00;99.90;;;;;;5119258;27;20043;-78
2022/10/13 07:25:57;;;;;;;40.05;16.73;;;11.00;99.90;;;;;;5135474;27;20431;-82
2022/10/13 07:28:24;;;;;;;49.03;18.27;;;11.00;99.90;;;;;;5118178;27;20075;-80
2022/10/13 07:30:50;;;;;;;34.05;15.77;;;11.10;99.90;;;;;;5135907;27;20087;-78
2022/10/13 07:33:15;;;;;;;44.95;18.00;;;11.10;99.90;;;;;;5116974;27;20115;-78
2022/10/13 07:35:41;;;;;;;40.72;17.65;;;11.10;99.90;;;;;;5134954;27;20046;-78
2022/10/13 07:38:07;;;;;;;48.28;17.98;;;11.20;99.90;;;;;;5100512;27;20058;-80
2022/10/13 07:40:34;;;;;;;46.47;17.87;;;11.30;99.90;;;;;;5134881;27;20126;-81
2022/10/13 07:43:00;;;;;;;42.58;18.92;;;11.30;99.90;;;;;;5134268;27;20072;-78
2022/10/13 07:45:26;;;;;;;40.45;15.57;;;11.40;99.90;;;;;;5116432;27;20031;-77
2022/10/13 07:47:52;;;;;;;38.63;16.73;;;11.50;99.90;;;;;;5116802;27;20039;-78
2022/10/13 07:50:17;;;;;;;41.13;17.95;;;11.60;99.90;;;;;;5082601;27;20077;-77
2022/10/13 07:52:43;;;;;;;46.03;17.10;;;11.70;99.90;;;;;;5133423;27;20050;-76
2022/10/13 07:55:09;;;;;;;40.78;17.30;;;11.70;99.90;;;;;;5133870;27;20047;-78
2022/10/13 07:57:35;;;;;;;38.90;17.27;;;11.70;99.90;;;;;;5133430;27;20508;-77
2022/10/13 08:00:02;;;;;;;44.30;17.95;;;11.70;99.90;;;;;;5134611;27;20049;-76
2022/10/13 08:02:29;;;;;;;42.28;17.45;;;11.80;99.90;;;;;;5133220;27;20088;-76
2022/10/13 08:04:55;;;;;;;43.40;17.55;;;11.90;99.90;;;;;;5116533;27;20375;-77
2022/10/13 08:07:21;;;;;;;45.05;18.48;;;12.00;99.90;;;;;;5133155;27;20088;-76
2022/10/13 08:09:46;;;;;;;38.72;17.73;;;12.10;99.90;;;;;;5116183;27;20054;-77
2022/10/13 08:12:12;;;;;;;45.92;18.23;;;12.20;99.90;;;;;;5115976;27;20043;-77
2022/10/13 08:14:38;;;;;;;44.13;17.83;;;12.30;99.90;;;;;;5132883;27;20058;-75
2022/10/13 08:17:04;;;;;;;39.75;18.05;;;12.40;99.90;;;;;;5132771;27;20103;-77
2022/10/13 08:19:29;;;;;;;44.60;17.35;;;12.50;99.90;;;;;;5134254;27;20055;-76
2022/10/13 08:21:55;;;;;;;40.05;17.23;;;12.60;99.90;;;;;;5134061;27;20482;-75
2022/10/13 08:24:21;;;;;;;32.78;16.20;;;12.70;99.90;;;;;;5133680;27;20483;-76
2022/10/13 08:26:48;;;;;;;37.28;16.98;;;12.80;99.90;;;;;;5132585;27;20053;-76
2022/10/13 08:29:14;;;;;;;;;;;12.90;99.90;;;;;;5134475;27;20047;-76
2022/10/13 08:31:41;;;;;;;39.17;16.80;;;12.90;99.90;;;;;;5115605;27;19927;-76
2022/10/13 08:34:07;;;;;;;38.22;15.68;;;12.90;99.90;;;;;;5115776;27;20483;-76
2022/10/13 08:36:33;;;;;;;39.13;17.38;;;13.00;99.90;;;;;;5134216;27;20300;-75
2022/10/13 08:38:58;;;;;;;42.72;17.55;;;13.00;99.90;;;;;;5134134;27;20133;-76
2022/10/13 08:41:28;;;;;;;42.50;16.15;;;13.10;99.90;;;;;;5132480;27;20078;-75
2022/10/13 08:44:04;;;;;;;37.88;16.77;;;13.00;99.90;;;;;;5132412;27;20413;-76
2022/10/13 08:46:43;;;;;;;41.45;15.07;;;13.00;99.90;;;;;;5132695;27;20469;-78
2022/10/13 08:49:10;;;;;;;34.30;16.38;;;13.00;99.90;;;;;;5133410;27;20417;-77
2022/10/13 08:51:36;;;;;;;41.97;16.83;;;12.90;99.90;;;;;;5098728;28;20402;-78
2022/10/13 08:54:04;;;;;;;41.35;16.90;;;13.00;99.90;;;;;;5132549;28;20079;-77
2022/10/13 08:56:33;;;;;;;37.42;17.45;;;13.00;99.90;;;;;;5132374;28;20406;-77
2022/10/13 08:59:00;;;;;;;39.35;16.25;;;13.00;99.90;;;;;;5133535;27;20111;-74
2022/10/13 09:01:31;;;;;;;45.65;17.05;;;13.00;99.90;;;;;;5133747;27;20467;-77
2022/10/13 09:04:24;;;;;;;41.75;16.40;;;13.00;99.90;;;;;;5132655;28;20039;-77
2022/10/13 09:07:20;;;;;;;35.58;15.80;;;13.10;99.90;;;;;;5133676;28;20088;-75
2022/10/13 09:09:50;;;;;;;41.47;16.42;;;13.10;99.90;;;;;;5131405;28;20063;-76
2022/10/13 09:12:20;;;;;;;42.55;17.00;;;13.00;99.90;;;;;;5134322;27;20070;-77
2022/10/13 09:14:58;;;;;;;37.33;16.73;;;13.00;99.90;;;;;;5117005;27;20055;-76
2022/10/13 09:17:27;;;;;;;39.38;17.13;;;12.90;99.90;;;;;;5135929;27;20059;-77
2022/10/13 09:20:24;;;;;;;51.03;18.80;;;12.90;99.90;;;;;;5120031;27;20050;-79
2022/10/13 09:23:04;;;;;;;34.50;16.85;;;12.90;99.90;;;;;;5131096;27;20086;-77
2022/10/13 09:25:39;;;;;;;39.22;17.52;;;12.90;99.90;;;;;;5136378;27;20121;-77
2022/10/13 09:28:27;;;;;;;41.70;17.85;;;12.90;99.90;;;;;;5136486;27;20050;-77
2022/10/13 09:31:03;;;;;;;43.28;17.35;;;13.00;99.90;;;;;;5137748;27;20119;-75
2022/10/13 09:33:34;;;;;;;45.80;18.20;;;13.00;99.90;;;;;;5136142;27;20051;-78
2022/10/13 09:36:05;;;;;;;37.40;16.88;;;13.10;99.90;;;;;;5137642;27;20055;-78
2022/10/13 09:38:31;;;;;;;42.03;17.02;;;13.20;99.90;;;;;;5137260;27;20047;-74
2022/10/13 09:41:08;;;;;;;42.43;18.80;;;13.20;99.90;;;;;;5119474;27;20474;-78
2022/10/13 09:43:46;;;;;;;41.05;17.98;;;13.20;99.90;;;;;;5138178;27;20281;-75
2022/10/13 09:46:51;;;;;;;44.92;17.52;;;13.30;99.90;;;;;;5118948;27;20083;-75
2022/10/13 09:49:43;;;;;;;43.63;18.73;;;13.20;99.90;;;;;;5119143;27;20051;-77
2022/10/13 09:52:12;;;;;;;42.67;19.13;;;13.10;99.90;;;;;;5131224;27;20047;-75
2022/10/13 09:54:50;;;;;;;42.40;19.65;;;13.10;99.90;;;;;;5119269;27;20129;-76
2022/10/13 09:57:30;;;;;;;41.65;19.45;;;13.10;99.90;;;;;;5136841;27;20495;-78
2022/10/13 10:00:23;;;;;;;47.03;20.23;;;13.10;99.90;;;;;;5135805;27;20039;-77
2022/10/13 10:03:13;;;;;;;45.25;19.48;;;13.20;99.90;;;;;;5118921;27;20043;-76
2022/10/13 10:05:56;;;;;;;49.22;19.92;;;13.20;99.90;;;;;;5135667;27;20042;-78
2022/10/13 10:08:58;;;;;;;44.55;19.60;;;13.20;99.90;;;;;;5136807;27;20297;-77
2022/10/13 10:11:46;;;;;;;52.63;21.33;;;13.30;99.90;;;;;;5135714;27;20062;-78
2022/10/13 10:14:24;;;;;;;43.45;20.42;;;13.30;99.90;;;;;;5136640;27;20047;-77
2022/10/13 10:17:00;;;;;;;44.30;20.13;;;13.40;99.90;;;;;;5135209;27;20491;-77
2022/10/13 10:19:56;;;;;;;51.15;20.95;;;13.50;99.90;;;;;;5137232;27;20051;-79
2022/10/13 10:22:40;;;;;;;46.50;20.67;;;13.70;99.90;;;;;;5118641;27;20429;-77
2022/10/13 10:25:24;;;;;;;50.15;22.48;;;13.90;99.90;;;;;;5134915;27;20044;-78
2022/10/13 10:28:21;;;;;;;50.97;21.98;;;13.90;99.90;;;;;;5134307;27;20055;-80
2022/10/13 10:31:38;;;;;;;46.63;19.25;;;13.90;99.90;;;;;;5135347;27;20040;-76
2022/10/13 10:34:18;;;;;;;50.33;20.10;;;14.00;99.90;;;;;;5113276;27;20135;-77
2022/10/13 10:37:13;;;;;;;48.05;20.35;;;14.10;99.90;;;;;;5135855;27;20046;-76
2022/10/13 10:40:03;;;;;;;42.72;19.27;;;14.20;99.90;;;;;;5134989;27;20463;-77
2022/10/13 10:42:50;;;;;;;46.72;20.35;;;14.20;99.90;;;;;;5135035;27;20043;-78
2022/10/13 10:45:43;;;;;;;48.55;20.92;;;14.10;99.90;;;;;;5134992;27;20095;-76
2022/10/13 10:48:20;;;;;;;45.80;20.10;;;14.20;99.90;;;;;;5131475;27;20043;-79
2022/10/13 10:50:48;;;;;;;48.10;21.88;;;14.10;99.90;;;;;;5135780;27;20035;-77
2022/10/13 10:53:17;;;;;;;45.47;20.25;;;14.00;99.90;;;;;;5136889;27;20039;-76
2022/10/13 10:55:45;;;;;;;44.03;21.92;;;14.00;99.90;;;;;;5135346;27;20031;-78
2022/10/13 10:58:17;;;;;;;42.13;20.98;;;14.00;99.90;;;;;;5135012;27;20039;-76
2022/10/13 11:01:11;;;;;;;44.97;21.10;;;14.10;99.90;;;;;;5134923;27;20043;-76
2022/10/13 11:04:03;;;;;;;45.35;20.75;;;14.10;99.90;;;;;;5117853;27;20200;-77
2022/10/13 11:06:38;;;;;;;47.13;20.30;;;14.20;99.90;;;;;;5082926;27;20108;-79
2022/10/13 11:09:05;;;;;;;47.40;21.48;;;14.10;99.90;;;;;;5135552;27;20465;-78
2022/10/13 11:11:31;;;;;;;;;;;14.20;99.90;;;;;;5118170;27;20046;-78
2022/10/13 11:14:11;;;;;;;;;;;14.10;99.90;;;;;;5134872;27;19915;-78
2022/10/13 11:17:01;;;;;;;42.53;19.67;;;14.10;99.90;;;;;;5150143;27;19915;-77
2022/10/13 11:19:32;;;;;;;48.95;21.50;;;14.10;99.90;;;;;;5121320;27;20047;-79
2022/10/13 11:21:57;;;;;;;47.78;21.30;;;14.10;99.90;;;;;;5155905;27;20039;-76
2022/10/13 11:24:32;;;;;;;51.20;20.52;;;14.10;99.90;;;;;;5138003;27;20069;-78
2022/10/13 11:27:23;;;;;;;43.72;21.88;;;14.10;99.90;;;;;;5138597;27;20054;-77
2022/10/13 11:29:57;;;;;;;50.53;21.85;;;14.10;99.90;;;;;;5155979;27;20490;-77
2022/10/13 11:32:29;;;;;;;46.35;22.08;;;14.10;99.90;;;;;;5157415;27;20043;-78
2022/10/13 11:35:09;;;;;;;45.25;21.20;;;14.00;99.90;;;;;;5157767;27;20121;-77
2022/10/13 11:37:34;;;;;;;47.88;22.63;;;14.00;99.90;;;;;;5125435;27;20054;-77
2022/10/13 11:40:24;;;;;;;51.63;22.30;;;13.90;99.90;;;;;;5164691;27;20053;-77
2022/10/13 11:43:11;;;;;;;51.65;21.52;;;13.90;99.90;;;;;;5123614;27;20043;-77
2022/10/13 11:45:45;;;;;;;53.33;22.70;;;13.90;99.90;;;;;;5142331;27;20051;-79
2022/10/13 11:48:48;;;;;;;55.10;22.42;;;13.90;99.90;;;;;;5144610;27;20135;-77
2022/10/13 11:51:54;;;;;;;50.33;21.92;;;13.90;99.90;;;;;;5107825;27;20110;-76
2022/10/13 11:54:38;;;;;;;47.67;22.75;;;13.90;99.90;;;;;;5146333;27;20046;-79
2022/10/13 11:57:20;;;;;;;51.15;23.35;;;13.90;99.90;;;;;;5127757;27;20061;-80
2022/10/13 11:59:54;;;;;;;50.80;23.02;;;13.80;99.90;;;;;;5162498;27;20366;-78
2022/10/13 12:02:22;;;;;;;49.15;22.00;;;13.80;99.90;;;;;;5143741;27;20046;-78
2022/10/13 12:05:18;;;;;;;49.00;22.40;;;13.80;99.90;;;;;;5125430;27;20047;-81
2022/10/13 12:07:46;;;;;;;46.53;22.13;;;13.90;99.90;;;;;;5124408;27;20051;-81
2022/10/13 12:10:32;;;;;;;53.33;23.52;;;13.90;99.90;;;;;;5140247;27;20054;-78
2022/10/13 12:12:58;;;;;;;51.92;23.30;;;14.00;99.90;;;;;;5138778;27;20057;-80
2022/10/13 12:15:30;;;;;;;51.92;22.70;;;14.10;99.90;;;;;;5156045;27;20058;-79
2022/10/13 12:17:57;;;;;;;48.60;22.27;;;14.20;99.90;;;;;;5156434;27;20103;-81
2022/10/13 12:20:29;;;;;;;41.77;20.33;;;14.30;99.90;;;;;;5137760;27;20130;-80
2022/10/13 12:22:56;;;;;;;42.72;20.55;;;14.50;99.90;;;;;;5155163;27;20125;-80
2022/10/13 12:25:25;;;;;;;44.67;21.35;;;14.70;99.90;;;;;;5136947;27;20047;-81
2022/10/13 12:27:58;;;;;;;43.65;21.15;;;14.90;99.90;;;;;;5136885;27;20100;-82
2022/10/13 12:30:35;;;;;;;41.72;19.15;;;15.00;99.90;;;;;;5136962;27;20099;-80
2022/10/13 12:33:02;;;;;;;44.88;22.05;;;15.10;99.90;;;;;;5121335;27;20042;-84
2022/10/13 12:35:30;;;;;;;39.13;20.58;;;15.20;99.90;;;;;;5137287;27;20034;-82
2022/10/13 12:38:00;;;;;;;41.05;20.83;;;15.10;99.90;;;;;;5155555;27;20043;-81
2022/10/13 12:40:26;;;;;;;41.75;21.45;;;15.00;99.90;;;;;;5136802;27;20050;-80
2022/10/13 12:42:52;;;;;;;42.78;20.88;;;15.00;99.90;;;;;;5155202;27;20126;-82
2022/10/13 12:45:20;;;;;;;38.90;20.30;;;14.90;99.90;;;;;;5136585;27;20474;-81
2022/10/13 12:47:52;;;;;;;43.53;21.77;;;14.90;99.90;;;;;;5120089;27;20175;-83
2022/10/13 12:50:26;;;;;;;42.05;21.17;;;14.80;99.90;;;;;;5135809;27;20047;-79
2022/10/13 12:53:13;;;;;;;46.20;22.02;;;14.70;99.90;;;;;;5120391;27;20094;-80